createdAt,value
2023-05-09T00:00:39.725Z,14.39
2023-05-09T00:03:06.282Z,14.42
2023-05-09T00:05:32.806Z,14.44
2023-05-09T00:07:59.284Z,14.41
2023-05-09T00:10:27.598Z,14.65
2023-05-09T00:12:54.124Z,14.73
2023-05-09T00:15:20.861Z,14.77
2023-05-09T00:17:47.478Z,14.79
2023-05-09T00:20:14.689Z,14.81
2023-05-09T00:22:41.496Z,14.73
2023-05-09T00:25:09.805Z,14.64
2023-05-09T00:27:36.280Z,14.63
2023-05-09T00:30:04.393Z,14.56
2023-05-09T00:32:32.139Z,14.64
2023-05-09T00:34:58.606Z,14.75
2023-05-09T00:37:25.284Z,14.52
2023-05-09T00:39:51.700Z,14.61
2023-05-09T00:42:18.238Z,14.51
2023-05-09T00:44:44.813Z,14.41
2023-05-09T00:47:11.335Z,14.50
2023-05-09T00:49:38.378Z,14.42
2023-05-09T00:52:05.806Z,14.34
2023-05-09T00:54:32.396Z,14.44
2023-05-09T00:56:58.986Z,14.37
2023-05-09T00:59:25.618Z,14.64
2023-05-09T01:01:52.227Z,14.57
2023-05-09T01:04:18.833Z,14.43
2023-05-09T01:06:58.000Z,14.23
2023-05-09T01:09:36.656Z,14.29
2023-05-09T01:12:47.657Z,14.16
2023-05-09T01:15:36.919Z,14.06
2023-05-09T01:18:24.495Z,13.96
2023-05-09T01:21:01.802Z,13.93
2023-05-09T01:23:47.666Z,13.91
2023-05-09T01:26:44.082Z,13.79
2023-05-09T01:29:42.314Z,13.77
2023-05-09T01:32:15.434Z,13.94
2023-05-09T01:34:44.018Z,14.04
2023-05-09T01:37:13.577Z,14.03
2023-05-09T01:39:42.038Z,13.85
2023-05-09T01:42:11.188Z,13.87
2023-05-09T01:44:40.985Z,13.73
2023-05-09T01:47:08.573Z,13.97
2023-05-09T01:49:39.909Z,13.97
2023-05-09T01:52:09.957Z,13.96
2023-05-09T01:54:38.755Z,13.89
2023-05-09T01:57:07.555Z,14.08
2023-05-09T01:59:35.475Z,14.07
2023-05-09T02:02:04.529Z,13.99
2023-05-09T02:04:32.325Z,13.86
2023-05-09T02:07:00.561Z,13.86
2023-05-09T02:09:27.187Z,13.87
2023-05-09T02:11:54.587Z,14.01
2023-05-09T02:14:21.658Z,13.93
2023-05-09T02:16:48.358Z,13.92
2023-05-09T02:19:14.860Z,13.89
2023-05-09T02:21:41.434Z,13.97
2023-05-09T02:24:07.984Z,13.86
2023-05-09T02:26:35.886Z,13.90
2023-05-09T02:29:05.666Z,14.00
2023-05-09T02:31:34.174Z,13.83
2023-05-09T02:34:04.149Z,13.75
2023-05-09T02:36:32.853Z,13.77
2023-05-09T02:39:00.173Z,13.72
2023-05-09T02:41:28.359Z,13.70
2023-05-09T02:43:55.067Z,13.74
2023-05-09T02:46:21.823Z,13.89
2023-05-09T02:48:48.424Z,13.82
2023-05-09T02:51:15.005Z,13.66
2023-05-09T02:53:41.468Z,13.77
2023-05-09T02:56:08.902Z,13.80
2023-05-09T02:58:35.683Z,13.90
2023-05-09T03:01:02.187Z,13.86
2023-05-09T03:03:28.880Z,13.64
2023-05-09T03:05:55.720Z,13.68
2023-05-09T03:08:22.236Z,13.56
2023-05-09T03:10:48.753Z,13.66
2023-05-09T03:13:15.320Z,13.55
2023-05-09T03:15:42.191Z,13.58
2023-05-09T03:18:08.652Z,13.62
2023-05-09T03:20:35.226Z,13.71
2023-05-09T03:23:01.685Z,13.68
2023-05-09T03:25:28.136Z,13.53
2023-05-09T03:27:54.590Z,13.61
2023-05-09T03:30:21.095Z,13.60
2023-05-09T03:32:47.659Z,13.60
2023-05-09T03:35:14.400Z,13.57
2023-05-09T03:37:41.169Z,13.69
2023-05-09T03:40:08.903Z,13.54
2023-05-09T03:42:35.482Z,13.51
2023-05-09T03:45:02.008Z,13.57
2023-05-09T03:47:28.542Z,13.54
2023-05-09T03:49:55.170Z,13.51
2023-05-09T03:52:21.708Z,13.43
2023-05-09T03:54:48.389Z,13.50
2023-05-09T03:57:14.885Z,13.51
2023-05-09T03:59:41.462Z,13.64
2023-05-09T04:02:07.998Z,13.74
2023-05-09T04:04:34.559Z,13.54
2023-05-09T04:07:01.142Z,13.53
2023-05-09T04:09:28.164Z,13.60
2023-05-09T04:11:54.614Z,13.60
2023-05-09T04:14:21.155Z,13.78
2023-05-09T04:16:47.666Z,13.70
2023-05-09T04:19:14.343Z,13.73
2023-05-09T04:21:40.958Z,13.69
2023-05-09T04:24:07.993Z,13.98
2023-05-09T04:26:38.198Z,13.92
2023-05-09T04:29:04.709Z,13.79
2023-05-09T04:31:31.658Z,13.82
2023-05-09T04:34:00.972Z,13.86
2023-05-09T04:36:31.802Z,14.03
2023-05-09T04:38:58.277Z,14.02
2023-05-09T04:41:24.952Z,13.95
2023-05-09T04:43:52.341Z,13.91
2023-05-09T04:46:18.817Z,13.98
2023-05-09T04:48:45.593Z,14.02
2023-05-09T04:51:12.058Z,14.02
2023-05-09T04:53:38.686Z,14.06
2023-05-09T04:56:05.525Z,14.13
2023-05-09T04:58:33.292Z,14.04
2023-05-09T05:00:59.910Z,14.03
2023-05-09T05:03:26.374Z,14.00
2023-05-09T05:05:53.050Z,14.10
2023-05-09T05:08:19.605Z,14.12
2023-05-09T05:10:46.071Z,14.19
2023-05-09T05:13:12.537Z,14.26
2023-05-09T05:15:39.052Z,14.37
2023-05-09T05:18:05.777Z,14.38
2023-05-09T05:20:32.625Z,14.33
2023-05-09T05:22:59.195Z,14.41
2023-05-09T05:25:26.258Z,14.46
2023-05-09T05:27:52.887Z,14.59
2023-05-09T05:30:20.894Z,14.54
2023-05-09T05:32:47.549Z,14.58
2023-05-09T05:35:14.247Z,14.52
2023-05-09T05:37:41.365Z,14.51
2023-05-09T05:40:08.494Z,14.64
2023-05-09T05:42:35.144Z,14.75
2023-05-09T05:45:04.407Z,14.79
2023-05-09T05:47:35.568Z,14.79
2023-05-09T05:50:03.924Z,14.86
2023-05-09T05:52:30.662Z,14.93
2023-05-09T05:54:57.172Z,14.98
2023-05-09T05:57:23.665Z,15.14
2023-05-09T05:59:51.198Z,15.23
2023-05-09T06:02:18.335Z,15.25
2023-05-09T06:04:45.138Z,15.23
2023-05-09T06:07:12.897Z,15.04
2023-05-09T06:09:39.493Z,15.13
2023-05-09T06:12:07.475Z,15.29
2023-05-09T06:14:34.078Z,15.29
2023-05-09T06:17:00.734Z,15.35
2023-05-09T06:19:27.304Z,15.45
2023-05-09T06:21:53.756Z,15.40
2023-05-09T06:24:34.591Z,15.28
2023-05-09T06:27:02.016Z,15.23
2023-05-09T06:29:28.543Z,15.28
2023-05-09T06:31:55.057Z,15.45
2023-05-09T06:34:21.571Z,15.44
2023-05-09T06:36:48.042Z,15.56
2023-05-09T06:39:14.560Z,15.74
2023-05-09T06:41:41.069Z,15.94
2023-05-09T06:44:07.690Z,16.12
2023-05-09T06:46:34.259Z,16.28
2023-05-09T06:49:02.481Z,16.63
2023-05-09T06:51:29.128Z,16.89
2023-05-09T06:53:55.903Z,16.89
2023-05-09T06:56:23.116Z,16.91
2023-05-09T06:58:49.675Z,17.39
2023-05-09T07:01:16.715Z,17.61
2023-05-09T07:03:43.402Z,17.86
2023-05-09T07:06:10.047Z,17.75
2023-05-09T07:08:36.545Z,18.27
2023-05-09T07:11:03.107Z,18.68
2023-05-09T07:13:29.641Z,19.36
2023-05-09T07:15:56.210Z,19.93
2023-05-09T07:18:22.713Z,20.14
2023-05-09T07:20:49.506Z,19.82
2023-05-09T07:23:16.033Z,20.57
2023-05-09T07:25:43.905Z,21.26
2023-05-09T07:28:12.364Z,21.18
2023-05-09T07:30:38.826Z,21.48
2023-05-09T07:33:05.348Z,21.62
2023-05-09T07:35:31.855Z,22.19
2023-05-09T07:37:58.394Z,22.56
2023-05-09T07:40:24.927Z,22.70
2023-05-09T07:42:53.480Z,22.93
2023-05-09T07:45:21.959Z,23.14
2023-05-09T07:47:50.310Z,22.90
2023-05-09T07:50:17.450Z,23.26
2023-05-09T07:52:43.968Z,23.53
2023-05-09T07:55:12.342Z,23.38
2023-05-09T07:57:40.049Z,23.21
2023-05-09T08:00:08.750Z,23.75
2023-05-09T08:02:35.590Z,24.06
2023-05-09T08:05:02.224Z,23.92
2023-05-09T08:07:28.705Z,24.09
2023-05-09T08:09:55.466Z,24.76
2023-05-09T08:12:22.050Z,24.12
2023-05-09T08:14:48.804Z,24.53
2023-05-09T08:17:16.222Z,24.81
2023-05-09T08:19:42.657Z,24.58
2023-05-09T08:22:09.125Z,24.79
2023-05-09T08:24:35.616Z,24.98
2023-05-09T08:27:02.727Z,24.64
2023-05-09T08:29:29.835Z,24.12
2023-05-09T08:31:56.430Z,25.33
2023-05-09T08:34:23.017Z,25.54
2023-05-09T08:36:49.605Z,25.63
2023-05-09T08:39:16.177Z,26.01
2023-05-09T08:41:43.239Z,26.79
2023-05-09T08:44:09.988Z,26.99
2023-05-09T08:46:43.737Z,27.07
2023-05-09T08:49:11.314Z,26.57
2023-05-09T08:51:38.292Z,27.01
2023-05-09T08:54:05.614Z,26.55
2023-05-09T08:56:34.066Z,26.67
2023-05-09T08:59:00.610Z,26.63
2023-05-09T09:01:27.975Z,26.88
2023-05-09T09:03:54.642Z,27.17
2023-05-09T09:06:23.396Z,26.71
2023-05-09T09:08:50.547Z,26.61
2023-05-09T09:11:17.551Z,26.69
2023-05-09T09:13:45.323Z,27.14
2023-05-09T09:16:20.939Z,27.38
2023-05-09T09:18:48.285Z,26.85
2023-05-09T09:21:17.114Z,27.34
2023-05-09T09:23:44.378Z,27.33
2023-05-09T09:26:11.310Z,26.74
2023-05-09T09:28:37.956Z,27.14
2023-05-09T09:31:21.504Z,27.59
2023-05-09T09:33:48.685Z,27.67
2023-05-09T09:36:15.427Z,27.97
2023-05-09T09:38:43.892Z,27.22
2023-05-09T09:41:12.342Z,27.80
2023-05-09T09:43:38.841Z,26.48
2023-05-09T09:46:05.983Z,26.81
2023-05-09T09:48:34.720Z,27.28
2023-05-09T09:51:11.703Z,27.86
2023-05-09T09:53:44.330Z,27.54
2023-05-09T09:56:11.089Z,27.47
2023-05-09T09:58:37.672Z,27.58
2023-05-09T10:01:10.711Z,27.58
2023-05-09T10:03:42.825Z,28.04
2023-05-09T10:06:11.575Z,27.16
2023-05-09T10:08:38.425Z,27.97
2023-05-09T10:11:05.554Z,27.97
2023-05-09T10:13:36.479Z,28.05
2023-05-09T10:16:04.314Z,27.44
2023-05-09T10:18:31.699Z,27.36
2023-05-09T10:21:03.945Z,27.36
2023-05-09T10:23:31.915Z,27.53
2023-05-09T10:26:28.595Z,27.05
2023-05-09T10:28:57.315Z,26.69
2023-05-09T10:31:29.359Z,26.72
2023-05-09T10:33:56.511Z,26.78
2023-05-09T10:36:26.816Z,26.85
2023-05-09T10:38:54.809Z,27.15
2023-05-09T10:41:22.206Z,26.97
2023-05-09T10:43:48.852Z,26.88
2023-05-09T10:46:16.302Z,26.19
2023-05-09T10:48:43.966Z,26.46
2023-05-09T10:51:11.973Z,26.83
2023-05-09T10:53:45.354Z,26.88
2023-05-09T10:56:35.720Z,26.22
2023-05-09T10:59:02.694Z,26.63
2023-05-09T11:01:37.578Z,26.42
2023-05-09T11:04:16.922Z,26.11
2023-05-09T11:06:52.128Z,25.82
2023-05-09T11:09:33.398Z,26.28
2023-05-09T11:12:06.365Z,26.59
2023-05-09T11:14:50.032Z,26.96
2023-05-09T11:17:22.843Z,27.13
2023-05-09T11:19:49.507Z,27.49
2023-05-09T11:22:16.976Z,27.47
2023-05-09T11:24:48.023Z,26.94
2023-05-09T11:27:43.909Z,27.21
2023-05-09T11:30:12.603Z,27.39
2023-05-09T11:32:58.844Z,27.45
2023-05-09T11:35:28.945Z,27.49
2023-05-09T11:38:04.526Z,27.05
2023-05-09T11:40:32.684Z,27.61
2023-05-09T11:43:01.015Z,28.08
2023-05-09T11:45:32.261Z,27.96
2023-05-09T11:47:59.305Z,27.27
2023-05-09T11:50:25.988Z,26.46
2023-05-09T11:52:54.164Z,26.26
2023-05-09T11:55:25.793Z,26.54
2023-05-09T11:57:53.810Z,27.03
2023-05-09T12:00:25.111Z,27.08
2023-05-09T12:02:53.223Z,27.33
2023-05-09T12:05:21.982Z,26.85
2023-05-09T12:07:49.254Z,26.45
2023-05-09T12:10:19.893Z,26.20
2023-05-09T12:12:51.010Z,25.88
2023-05-09T12:15:18.876Z,25.47
2023-05-09T12:17:47.315Z,25.17
2023-05-09T12:20:15.521Z,24.90
2023-05-09T12:22:45.294Z,25.28
2023-05-09T12:25:12.419Z,25.29
2023-05-09T12:27:40.392Z,25.40
2023-05-09T12:30:10.154Z,25.69
2023-05-09T12:32:39.576Z,25.77
2023-05-09T12:35:12.782Z,25.19
2023-05-09T12:37:39.381Z,25.28
2023-05-09T12:40:11.389Z,24.91
2023-05-09T12:42:39.081Z,24.77
2023-05-09T12:45:08.749Z,24.83
2023-05-09T12:47:35.513Z,24.93
2023-05-09T12:50:04.306Z,24.87
2023-05-09T12:52:50.221Z,24.78
2023-05-09T12:55:21.152Z,24.98
2023-05-09T12:57:58.712Z,24.49
2023-05-09T13:00:25.530Z,24.36
2023-05-09T13:02:53.003Z,24.01
2023-05-09T13:05:21.706Z,24.21
2023-05-09T13:07:50.393Z,24.18
2023-05-09T13:10:21.402Z,24.32
2023-05-09T13:12:49.290Z,24.26
2023-05-09T13:15:19.906Z,23.88
2023-05-09T13:17:47.873Z,23.55
2023-05-09T13:20:14.782Z,23.88
2023-05-09T13:22:41.867Z,23.73
2023-05-09T13:25:08.745Z,23.57
2023-05-09T13:27:35.831Z,23.40
2023-05-09T13:30:02.393Z,23.41
2023-05-09T13:32:29.019Z,23.36
2023-05-09T13:34:55.581Z,23.53
2023-05-09T13:37:22.625Z,23.41
2023-05-09T13:39:49.294Z,23.49
2023-05-09T13:42:17.322Z,23.46
2023-05-09T13:44:46.933Z,23.24
2023-05-09T13:47:16.097Z,23.19
2023-05-09T13:49:42.656Z,22.96
2023-05-09T13:52:09.133Z,22.81
2023-05-09T13:54:35.586Z,22.75
2023-05-09T13:57:03.706Z,22.58
2023-05-09T13:59:31.539Z,22.38
2023-05-09T14:01:59.875Z,22.22
2023-05-09T14:04:27.765Z,21.97
2023-05-09T14:06:55.563Z,21.86
2023-05-09T14:09:22.790Z,21.42
2023-05-09T14:11:53.417Z,21.00
2023-05-09T14:14:21.388Z,20.80
2023-05-09T14:16:48.405Z,20.61
2023-05-09T14:19:15.568Z,20.40
2023-05-09T14:21:47.248Z,20.46
2023-05-09T14:24:16.119Z,20.45
2023-05-09T14:26:43.690Z,20.27
2023-05-09T14:29:10.451Z,20.14
2023-05-09T14:31:37.064Z,20.25
2023-05-09T14:34:05.203Z,20.18
2023-05-09T14:36:32.881Z,20.21
2023-05-09T14:38:59.448Z,20.04
2023-05-09T14:41:25.984Z,20.01
2023-05-09T14:43:52.541Z,20.00
2023-05-09T14:46:19.151Z,20.08
2023-05-09T14:48:45.791Z,20.12
2023-05-09T14:51:12.336Z,20.03
2023-05-09T14:53:42.098Z,20.04
2023-05-09T14:56:10.474Z,19.93
2023-05-09T14:58:37.514Z,19.91
2023-05-09T15:01:06.892Z,20.02
2023-05-09T15:03:33.588Z,19.89
2023-05-09T15:06:00.227Z,19.91
2023-05-09T15:08:27.105Z,19.71
2023-05-09T15:10:53.662Z,19.38
2023-05-09T15:13:20.793Z,19.24
2023-05-09T15:15:47.854Z,19.31
2023-05-09T15:18:16.519Z,19.25
2023-05-09T15:20:43.466Z,19.18
2023-05-09T15:23:10.801Z,19.14
2023-05-09T15:25:37.402Z,19.02
2023-05-09T15:28:04.352Z,19.00
2023-05-09T15:30:30.943Z,18.98
2023-05-09T15:32:57.601Z,18.88
2023-05-09T15:35:24.161Z,18.83
2023-05-09T15:37:50.740Z,18.66
2023-05-09T15:40:17.528Z,18.57
2023-05-09T15:42:44.116Z,18.60
2023-05-09T15:45:10.824Z,18.57
2023-05-09T15:47:37.466Z,18.61
2023-05-09T15:50:04.518Z,18.65
2023-05-09T15:52:31.234Z,18.71
2023-05-09T15:54:58.121Z,18.82
2023-05-09T15:57:25.026Z,18.78
2023-05-09T15:59:54.383Z,18.80
2023-05-09T16:02:21.693Z,18.80
2023-05-09T16:04:48.251Z,18.89
2023-05-09T16:07:14.848Z,18.74
2023-05-09T16:09:41.350Z,18.78
2023-05-09T16:12:07.922Z,19.01
2023-05-09T16:14:34.587Z,18.72
2023-05-09T16:17:02.593Z,18.59
2023-05-09T16:19:29.218Z,18.62
2023-05-09T16:21:55.769Z,18.45
2023-05-09T16:24:22.617Z,18.56
2023-05-09T16:26:49.225Z,18.53
2023-05-09T16:29:15.743Z,18.34
2023-05-09T16:31:42.261Z,18.12
2023-05-09T16:34:09.061Z,18.24
2023-05-09T16:36:37.474Z,18.45
2023-05-09T16:39:04.144Z,18.37
2023-05-09T16:41:30.670Z,18.28
2023-05-09T16:43:57.365Z,18.05
2023-05-09T16:46:23.915Z,18.05
2023-05-09T16:48:53.521Z,17.91
2023-05-09T16:51:20.065Z,17.85
2023-05-09T16:53:46.578Z,17.84
2023-05-09T16:56:13.116Z,17.87
2023-05-09T16:58:39.595Z,17.81
2023-05-09T17:01:06.540Z,17.81
2023-05-09T17:03:33.073Z,17.75
2023-05-09T17:05:59.540Z,17.67
2023-05-09T17:08:26.024Z,17.50
2023-05-09T17:10:52.555Z,17.51
2023-05-09T17:13:19.009Z,17.37
2023-05-09T17:15:45.737Z,17.41
2023-05-09T17:18:17.056Z,17.44
2023-05-09T17:20:46.175Z,17.46
2023-05-09T17:23:12.615Z,17.38
2023-05-09T17:25:39.066Z,17.44
2023-05-09T17:28:05.629Z,17.54
2023-05-09T17:30:32.374Z,17.48
2023-05-09T17:32:58.901Z,17.50
2023-05-09T17:35:25.915Z,17.55
2023-05-09T17:37:52.358Z,17.67
2023-05-09T17:40:18.943Z,17.53
2023-05-09T17:42:45.433Z,17.40
2023-05-09T17:45:12.386Z,17.36
2023-05-09T17:47:39.610Z,17.17
2023-05-09T17:50:07.199Z,17.11
2023-05-09T17:52:34.106Z,17.08
2023-05-09T17:55:01.210Z,17.00
2023-05-09T17:57:28.219Z,17.10
2023-05-09T17:59:54.698Z,17.10
2023-05-09T18:02:24.005Z,17.15
2023-05-09T18:04:51.474Z,17.04
2023-05-09T18:07:18.039Z,16.98
2023-05-09T18:09:44.597Z,16.90
2023-05-09T18:12:11.566Z,16.94
2023-05-09T18:14:39.100Z,16.87
2023-05-09T18:17:05.679Z,16.94
2023-05-09T18:19:33.176Z,16.88
2023-05-09T18:21:59.751Z,16.88
2023-05-09T18:24:26.289Z,16.81
2023-05-09T18:26:52.853Z,16.81
2023-05-09T18:29:19.568Z,16.79
2023-05-09T18:31:46.175Z,16.82
2023-05-09T18:34:12.977Z,16.80
2023-05-09T18:36:39.445Z,16.65
2023-05-09T18:39:05.949Z,16.57
2023-05-09T18:41:33.907Z,16.58
2023-05-09T18:44:00.362Z,16.61
2023-05-09T18:46:27.957Z,16.68
2023-05-09T18:48:54.771Z,16.69
2023-05-09T18:51:21.505Z,16.75
2023-05-09T18:53:48.470Z,16.69
2023-05-09T18:56:16.182Z,16.63
2023-05-09T18:58:42.662Z,16.61
2023-05-09T19:01:11.451Z,16.54
2023-05-09T19:03:45.756Z,16.53
2023-05-09T19:06:13.750Z,16.40
2023-05-09T19:08:43.746Z,16.36
2023-05-09T19:11:11.627Z,16.29
2023-05-09T19:13:40.108Z,16.32
2023-05-09T19:16:08.167Z,16.27
2023-05-09T19:18:34.802Z,16.20
2023-05-09T19:21:01.719Z,16.18
2023-05-09T19:23:28.153Z,16.06
2023-05-09T19:25:55.085Z,16.10
2023-05-09T19:28:22.896Z,16.04
2023-05-09T19:30:50.068Z,16.16
2023-05-09T19:33:16.911Z,16.03
2023-05-09T19:35:43.981Z,16.03
2023-05-09T19:38:13.416Z,16.02
2023-05-09T19:40:40.580Z,16.00
2023-05-09T19:43:07.127Z,16.02
2023-05-09T19:45:33.597Z,15.96
2023-05-09T19:48:00.677Z,15.94
2023-05-09T19:50:27.327Z,15.93
2023-05-09T19:52:54.260Z,15.90
2023-05-09T19:55:20.850Z,15.92
2023-05-09T19:57:47.421Z,15.95
2023-05-09T20:00:14.461Z,16.02
2023-05-09T20:02:41.278Z,15.90
2023-05-09T20:05:08.162Z,15.88
2023-05-09T20:07:34.556Z,15.83
2023-05-09T20:10:01.041Z,15.80
2023-05-09T20:12:29.894Z,15.77
2023-05-09T20:14:56.700Z,15.83
2023-05-09T20:17:23.139Z,15.77
2023-05-09T20:19:49.647Z,15.81
2023-05-09T20:22:16.112Z,15.85
2023-05-09T20:24:42.657Z,15.93
2023-05-09T20:27:09.066Z,15.85
2023-05-09T20:29:35.443Z,15.88
2023-05-09T20:32:01.864Z,15.79
2023-05-09T20:34:28.320Z,15.76
2023-05-09T20:36:55.050Z,15.63
2023-05-09T20:39:21.774Z,15.61
2023-05-09T20:41:49.031Z,15.63
2023-05-09T20:44:16.710Z,15.62
2023-05-09T20:46:44.804Z,15.57
2023-05-09T20:49:11.444Z,15.46
2023-05-09T20:51:38.426Z,15.47
2023-05-09T20:54:05.042Z,15.45
2023-05-09T20:56:33.161Z,15.52
2023-05-09T20:59:03.897Z,15.46
2023-05-09T21:01:39.483Z,15.38
2023-05-09T21:04:08.195Z,15.27
2023-05-09T21:06:36.087Z,15.21
2023-05-09T21:09:03.288Z,15.21
2023-05-09T21:11:29.988Z,15.24
2023-05-09T21:13:56.431Z,15.30
2023-05-09T21:16:23.130Z,15.25
2023-05-09T21:18:49.823Z,15.30
2023-05-09T21:21:16.314Z,15.33
2023-05-09T21:23:42.760Z,15.40
2023-05-09T21:26:09.309Z,15.38
2023-05-09T21:28:35.751Z,15.39
2023-05-09T21:31:02.295Z,15.51
2023-05-09T21:33:29.457Z,15.46
2023-05-09T21:35:55.880Z,15.38
2023-05-09T21:38:22.670Z,15.36
2023-05-09T21:40:52.225Z,15.28
2023-05-09T21:43:19.226Z,15.35
2023-05-09T21:45:45.962Z,15.29
2023-05-09T21:48:12.493Z,15.28
2023-05-09T21:50:39.137Z,15.38
2023-05-09T21:53:05.854Z,15.48
2023-05-09T21:55:32.400Z,15.46
2023-05-09T21:57:58.812Z,15.38
2023-05-09T22:00:25.444Z,15.36
2023-05-09T22:02:51.900Z,15.35
2023-05-09T22:05:18.647Z,15.33
2023-05-09T22:07:45.044Z,15.35
2023-05-09T22:10:12.080Z,15.37
2023-05-09T22:12:38.490Z,15.32
2023-05-09T22:15:05.415Z,15.28
2023-05-09T22:17:31.935Z,15.21
2023-05-09T22:19:58.348Z,15.17
2023-05-09T22:22:24.772Z,15.21
2023-05-09T22:24:51.201Z,15.14
2023-05-09T22:27:17.583Z,15.13
2023-05-09T22:29:44.011Z,15.06
2023-05-09T22:32:10.567Z,15.00
2023-05-09T22:34:37.147Z,14.90
2023-05-09T22:37:03.784Z,14.88
2023-05-09T22:39:30.809Z,14.85
2023-05-09T22:41:57.211Z,14.85
2023-05-09T22:44:23.715Z,14.77
2023-05-09T22:46:50.412Z,14.84
2023-05-09T22:49:16.890Z,14.76
2023-05-09T22:51:43.378Z,14.75
2023-05-09T22:54:10.062Z,14.72
2023-05-09T22:56:36.653Z,14.79
2023-05-09T22:59:03.087Z,14.70
2023-05-09T23:01:29.639Z,14.72
2023-05-09T23:03:56.087Z,14.70
2023-05-09T23:06:22.595Z,14.71
2023-05-09T23:08:49.162Z,14.68
2023-05-09T23:11:15.586Z,14.61
2023-05-09T23:13:42.361Z,14.55
2023-05-09T23:16:08.899Z,14.56
2023-05-09T23:18:35.357Z,14.57
2023-05-09T23:21:01.868Z,14.58
2023-05-09T23:23:28.826Z,14.59
2023-05-09T23:25:55.349Z,14.60
2023-05-09T23:28:25.071Z,14.66
2023-05-09T23:30:53.092Z,14.65
2023-05-09T23:33:19.594Z,14.65
2023-05-09T23:35:46.155Z,14.71
2023-05-09T23:38:12.698Z,14.76
2023-05-09T23:40:39.705Z,14.62
2023-05-09T23:43:06.201Z,14.67
2023-05-09T23:45:32.669Z,14.59
2023-05-09T23:47:59.218Z,14.70
2023-05-09T23:50:25.899Z,14.72
2023-05-09T23:52:52.466Z,14.70
2023-05-09T23:55:19.037Z,14.68
2023-05-09T23:57:45.594Z,14.75
